sensor_id;sensor_type;location;lat;lon;timestamp;P1;durP1;ratioP1;P2;durP2;ratioP2
20122;SDS011;10222;50.848;4.336;2022-12-18T00:00:47;12.57;;;8.13;;
20122;SDS011;10222;50.848;4.336;2022-12-18T00:03:17;13.30;;;7.33;;
20122;SDS011;10222;50.848;4.336;2022-12-18T00:05:49;16.37;;;6.37;;
20122;SDS011;10222;50.848;4.336;2022-12-18T00:08:15;16.93;;;7.97;;
20122;SDS011;10222;50.848;4.336;2022-12-18T00:10:43;15.47;;;7.53;;
20122;SDS011;10222;50.848;4.336;2022-12-18T00:13:09;16.83;;;8.07;;
20122;SDS011;10222;50.848;4.336;2022-12-18T00:15:36;20.30;;;8.87;;
20122;SDS011;10222;50.848;4.336;2022-12-18T00:18:03;18.40;;;9.30;;
20122;SDS011;10222;50.848;4.336;2022-12-18T00:20:29;16.47;;;7.73;;
20122;SDS011;10222;50.848;4.336;2022-12-18T00:22:55;20.80;;;7.70;;
20122;SDS011;10222;50.848;4.336;2022-12-18T00:25:22;12.80;;;6.93;;
20122;SDS011;10222;50.848;4.336;2022-12-18T00:27:48;19.33;;;8.93;;
20122;SDS011;10222;50.848;4.336;2022-12-18T00:30:14;16.90;;;8.10;;
20122;SDS011;10222;50.848;4.336;2022-12-18T00:32:40;15.20;;;8.13;;
20122;SDS011;10222;50.848;4.336;2022-12-18T00:35:07;18.87;;;8.53;;
20122;SDS011;10222;50.848;4.336;2022-12-18T00:37:33;16.90;;;8.57;;
20122;SDS011;10222;50.848;4.336;2022-12-18T00:39:59;18.13;;;8.63;;
20122;SDS011;10222;50.848;4.336;2022-12-18T00:42:25;23.90;;;8.60;;
20122;SDS011;10222;50.848;4.336;2022-12-18T00:45:11;15.40;;;7.33;;
20122;SDS011;10222;50.848;4.336;2022-12-18T00:47:37;22.50;;;8.67;;
20122;SDS011;10222;50.848;4.336;2022-12-18T00:50:04;14.70;;;8.73;;
20122;SDS011;10222;50.848;4.336;2022-12-18T00:52:30;18.83;;;7.50;;
20122;SDS011;10222;50.848;4.336;2022-12-18T00:54:56;16.87;;;8.30;;
20122;SDS011;10222;50.848;4.336;2022-12-18T00:57:22;13.13;;;7.13;;
20122;SDS011;10222;50.848;4.336;2022-12-18T00:59:48;13.90;;;6.50;;
20122;SDS011;10222;50.848;4.336;2022-12-18T01:02:15;14.17;;;6.23;;
20122;SDS011;10222;50.848;4.336;2022-12-18T01:04:42;16.20;;;7.20;;
20122;SDS011;10222;50.848;4.336;2022-12-18T01:07:08;13.13;;;6.67;;
20122;SDS011;10222;50.848;4.336;2022-12-18T01:09:34;13.53;;;6.20;;
20122;SDS011;10222;50.848;4.336;2022-12-18T01:12:02;11.20;;;5.87;;
20122;SDS011;10222;50.848;4.336;2022-12-18T01:14:28;16.27;;;6.00;;
20122;SDS011;10222;50.848;4.336;2022-12-18T01:16:55;12.47;;;6.47;;
20122;SDS011;10222;50.848;4.336;2022-12-18T01:19:21;9.90;;;5.57;;
20122;SDS011;10222;50.848;4.336;2022-12-18T01:21:47;14.53;;;6.10;;
20122;SDS011;10222;50.848;4.336;2022-12-18T01:24:13;9.13;;;5.97;;
20122;SDS011;10222;50.848;4.336;2022-12-18T01:26:39;13.47;;;5.97;;
20122;SDS011;10222;50.848;4.336;2022-12-18T01:29:05;13.43;;;6.40;;
20122;SDS011;10222;50.848;4.336;2022-12-18T01:31:32;16.60;;;5.83;;
20122;SDS011;10222;50.848;4.336;2022-12-18T01:34:04;12.93;;;6.37;;
20122;SDS011;10222;50.848;4.336;2022-12-18T01:36:31;9.43;;;6.07;;
20122;SDS011;10222;50.848;4.336;2022-12-18T01:39:02;15.17;;;7.63;;
20122;SDS011;10222;50.848;4.336;2022-12-18T01:41:29;11.33;;;5.83;;
20122;SDS011;10222;50.848;4.336;2022-12-18T01:46:58;9.30;;;5.27;;
20122;SDS011;10222;50.848;4.336;2022-12-18T01:49:24;9.97;;;6.43;;
20122;SDS011;10222;50.848;4.336;2022-12-18T01:51:50;10.23;;;5.23;;
20122;SDS011;10222;50.848;4.336;2022-12-18T01:54:17;11.50;;;5.57;;
20122;SDS011;10222;50.848;4.336;2022-12-18T01:56:44;7.97;;;4.83;;
20122;SDS011;10222;50.848;4.336;2022-12-18T01:59:11;10.17;;;5.90;;
20122;SDS011;10222;50.848;4.336;2022-12-18T02:01:38;11.27;;;5.40;;
20122;SDS011;10222;50.848;4.336;2022-12-18T02:04:21;10.57;;;5.70;;
20122;SDS011;10222;50.848;4.336;2022-12-18T02:06:49;10.33;;;5.47;;
20122;SDS011;10222;50.848;4.336;2022-12-18T02:09:20;9.53;;;5.60;;
20122;SDS011;10222;50.848;4.336;2022-12-18T02:14:42;12.97;;;5.83;;
20122;SDS011;10222;50.848;4.336;2022-12-18T02:17:20;18.07;;;6.33;;
20122;SDS011;10222;50.848;4.336;2022-12-18T02:20:02;12.80;;;6.80;;
20122;SDS011;10222;50.848;4.336;2022-12-18T02:27:27;12.07;;;5.00;;
20122;SDS011;10222;50.848;4.336;2022-12-18T02:29:54;10.83;;;6.40;;
20122;SDS011;10222;50.848;4.336;2022-12-18T02:32:24;16.47;;;7.10;;
20122;SDS011;10222;50.848;4.336;2022-12-18T02:34:51;13.47;;;6.10;;
20122;SDS011;10222;50.848;4.336;2022-12-18T02:37:18;11.80;;;5.73;;
20122;SDS011;10222;50.848;4.336;2022-12-18T02:39:46;13.47;;;5.83;;
20122;SDS011;10222;50.848;4.336;2022-12-18T02:42:14;13.03;;;5.97;;
20122;SDS011;10222;50.848;4.336;2022-12-18T02:44:44;12.93;;;5.50;;
20122;SDS011;10222;50.848;4.336;2022-12-18T02:47:11;9.97;;;6.43;;
20122;SDS011;10222;50.848;4.336;2022-12-18T02:49:57;11.70;;;5.27;;
20122;SDS011;10222;50.848;4.336;2022-12-18T02:55:27;12.40;;;4.50;;
20122;SDS011;10222;50.848;4.336;2022-12-18T02:58:02;7.93;;;4.80;;
20122;SDS011;10222;50.848;4.336;2022-12-18T03:00:32;13.77;;;5.73;;
20122;SDS011;10222;50.848;4.336;2022-12-18T03:05:33;10.70;;;5.70;;
20122;SDS011;10222;50.848;4.336;2022-12-18T03:08:06;17.40;;;6.07;;
20122;SDS011;10222;50.848;4.336;2022-12-18T03:10:36;9.47;;;5.13;;
20122;SDS011;10222;50.848;4.336;2022-12-18T03:13:05;9.03;;;4.23;;
20122;SDS011;10222;50.848;4.336;2022-12-18T03:15:33;8.00;;;4.93;;
20122;SDS011;10222;50.848;4.336;2022-12-18T03:18:04;7.67;;;5.10;;
20122;SDS011;10222;50.848;4.336;2022-12-18T03:20:32;11.50;;;6.13;;
20122;SDS011;10222;50.848;4.336;2022-12-18T03:23:07;11.90;;;5.53;;
20122;SDS011;10222;50.848;4.336;2022-12-18T03:25:35;10.13;;;4.90;;
20122;SDS011;10222;50.848;4.336;2022-12-18T03:28:03;12.07;;;5.73;;
20122;SDS011;10222;50.848;4.336;2022-12-18T03:30:35;7.17;;;4.83;;
20122;SDS011;10222;50.848;4.336;2022-12-18T03:33:10;6.63;;;4.20;;
20122;SDS011;10222;50.848;4.336;2022-12-18T03:35:39;10.63;;;5.40;;
20122;SDS011;10222;50.848;4.336;2022-12-18T03:38:06;7.20;;;4.90;;
20122;SDS011;10222;50.848;4.336;2022-12-18T03:40:52;7.33;;;4.90;;
20122;SDS011;10222;50.848;4.336;2022-12-18T03:46:02;7.37;;;3.93;;
20122;SDS011;10222;50.848;4.336;2022-12-18T03:48:32;10.27;;;6.07;;
20122;SDS011;10222;50.848;4.336;2022-12-18T03:51:05;12.27;;;5.47;;
20122;SDS011;10222;50.848;4.336;2022-12-18T03:56:04;8.87;;;4.80;;
20122;SDS011;10222;50.848;4.336;2022-12-18T03:58:31;9.13;;;4.17;;
20122;SDS011;10222;50.848;4.336;2022-12-18T04:00:58;7.13;;;3.57;;
20122;SDS011;10222;50.848;4.336;2022-12-18T04:03:26;5.80;;;4.40;;
20122;SDS011;10222;50.848;4.336;2022-12-18T04:05:54;28.33;;;9.50;;
20122;SDS011;10222;50.848;4.336;2022-12-18T04:08:21;10.00;;;5.27;;
20122;SDS011;10222;50.848;4.336;2022-12-18T04:10:47;23.23;;;12.13;;
20122;SDS011;10222;50.848;4.336;2022-12-18T04:13:21;20.47;;;11.07;;
20122;SDS011;10222;50.848;4.336;2022-12-18T04:15:47;26.17;;;11.93;;
20122;SDS011;10222;50.848;4.336;2022-12-18T04:18:13;13.60;;;8.03;;
20122;SDS011;10222;50.848;4.336;2022-12-18T04:20:40;26.80;;;11.63;;
20122;SDS011;10222;50.848;4.336;2022-12-18T04:23:06;17.83;;;8.77;;
20122;SDS011;10222;50.848;4.336;2022-12-18T04:25:32;11.63;;;5.90;;
20122;SDS011;10222;50.848;4.336;2022-12-18T04:27:58;10.07;;;5.53;;
20122;SDS011;10222;50.848;4.336;2022-12-18T04:30:24;7.67;;;4.53;;
20122;SDS011;10222;50.848;4.336;2022-12-18T04:32:50;9.70;;;4.87;;
20122;SDS011;10222;50.848;4.336;2022-12-18T04:35:16;8.23;;;4.67;;
20122;SDS011;10222;50.848;4.336;2022-12-18T04:37:42;8.70;;;5.20;;
20122;SDS011;10222;50.848;4.336;2022-12-18T04:40:08;9.67;;;6.03;;
20122;SDS011;10222;50.848;4.336;2022-12-18T04:42:34;9.53;;;4.97;;
20122;SDS011;10222;50.848;4.336;2022-12-18T04:45:00;14.37;;;5.60;;
20122;SDS011;10222;50.848;4.336;2022-12-18T04:47:26;13.07;;;6.23;;
20122;SDS011;10222;50.848;4.336;2022-12-18T04:49:52;13.73;;;6.20;;
20122;SDS011;10222;50.848;4.336;2022-12-18T04:52:18;7.60;;;4.23;;
20122;SDS011;10222;50.848;4.336;2022-12-18T04:54:46;7.07;;;3.83;;
20122;SDS011;10222;50.848;4.336;2022-12-18T04:57:12;8.23;;;5.23;;
20122;SDS011;10222;50.848;4.336;2022-12-18T04:59:38;5.17;;;3.67;;
20122;SDS011;10222;50.848;4.336;2022-12-18T05:02:04;8.90;;;4.37;;
20122;SDS011;10222;50.848;4.336;2022-12-18T05:04:30;7.97;;;3.27;;
20122;SDS011;10222;50.848;4.336;2022-12-18T05:06:57;15.20;;;4.67;;
20122;SDS011;10222;50.848;4.336;2022-12-18T05:09:23;7.30;;;4.10;;
20122;SDS011;10222;50.848;4.336;2022-12-18T05:11:49;8.60;;;3.97;;
20122;SDS011;10222;50.848;4.336;2022-12-18T05:14:15;5.73;;;3.50;;
20122;SDS011;10222;50.848;4.336;2022-12-18T05:16:41;11.83;;;3.77;;
20122;SDS011;10222;50.848;4.336;2022-12-18T05:19:07;7.07;;;3.87;;
20122;SDS011;10222;50.848;4.336;2022-12-18T05:21:34;9.07;;;4.50;;
20122;SDS011;10222;50.848;4.336;2022-12-18T05:24:00;10.67;;;4.37;;
20122;SDS011;10222;50.848;4.336;2022-12-18T05:26:27;8.67;;;4.27;;
20122;SDS011;10222;50.848;4.336;2022-12-18T05:28:53;8.70;;;3.23;;
20122;SDS011;10222;50.848;4.336;2022-12-18T05:31:20;12.80;;;4.43;;
20122;SDS011;10222;50.848;4.336;2022-12-18T05:33:46;6.50;;;4.00;;
20122;SDS011;10222;50.848;4.336;2022-12-18T05:36:12;12.00;;;4.57;;
20122;SDS011;10222;50.848;4.336;2022-12-18T05:38:38;11.33;;;4.73;;
20122;SDS011;10222;50.848;4.336;2022-12-18T05:41:05;8.10;;;4.53;;
20122;SDS011;10222;50.848;4.336;2022-12-18T05:43:31;8.60;;;3.83;;
20122;SDS011;10222;50.848;4.336;2022-12-18T05:45:57;9.37;;;3.87;;
20122;SDS011;10222;50.848;4.336;2022-12-18T05:48:23;9.20;;;4.63;;
20122;SDS011;10222;50.848;4.336;2022-12-18T05:50:50;5.07;;;3.63;;
20122;SDS011;10222;50.848;4.336;2022-12-18T05:53:18;7.53;;;3.57;;
20122;SDS011;10222;50.848;4.336;2022-12-18T05:55:44;9.80;;;5.07;;
20122;SDS011;10222;50.848;4.336;2022-12-18T05:58:11;8.40;;;4.20;;
20122;SDS011;10222;50.848;4.336;2022-12-18T06:00:40;6.17;;;2.97;;
20122;SDS011;10222;50.848;4.336;2022-12-18T06:03:06;8.17;;;3.60;;
20122;SDS011;10222;50.848;4.336;2022-12-18T06:05:37;5.40;;;3.97;;
20122;SDS011;10222;50.848;4.336;2022-12-18T06:08:03;5.83;;;3.50;;
20122;SDS011;10222;50.848;4.336;2022-12-18T06:10:29;6.17;;;3.87;;
20122;SDS011;10222;50.848;4.336;2022-12-18T06:12:55;9.87;;;4.53;;
20122;SDS011;10222;50.848;4.336;2022-12-18T06:15:21;6.73;;;3.90;;
20122;SDS011;10222;50.848;4.336;2022-12-18T06:17:47;3.63;;;2.50;;
20122;SDS011;10222;50.848;4.336;2022-12-18T06:20:13;9.53;;;3.30;;
20122;SDS011;10222;50.848;4.336;2022-12-18T06:22:40;8.53;;;4.33;;
20122;SDS011;10222;50.848;4.336;2022-12-18T06:25:06;11.40;;;4.20;;
20122;SDS011;10222;50.848;4.336;2022-12-18T06:27:33;5.77;;;3.23;;
20122;SDS011;10222;50.848;4.336;2022-12-18T06:29:59;7.90;;;3.57;;
20122;SDS011;10222;50.848;4.336;2022-12-18T06:32:26;9.87;;;3.97;;
20122;SDS011;10222;50.848;4.336;2022-12-18T06:34:52;7.13;;;3.30;;
20122;SDS011;10222;50.848;4.336;2022-12-18T06:37:19;11.23;;;4.60;;
20122;SDS011;10222;50.848;4.336;2022-12-18T06:39:45;7.37;;;4.07;;
20122;SDS011;10222;50.848;4.336;2022-12-18T06:42:11;4.43;;;3.03;;
20122;SDS011;10222;50.848;4.336;2022-12-18T06:44:37;7.43;;;3.07;;
20122;SDS011;10222;50.848;4.336;2022-12-18T06:47:04;8.23;;;3.83;;
20122;SDS011;10222;50.848;4.336;2022-12-18T06:49:30;4.30;;;2.70;;
20122;SDS011;10222;50.848;4.336;2022-12-18T06:51:56;6.13;;;3.23;;
20122;SDS011;10222;50.848;4.336;2022-12-18T06:54:22;3.77;;;2.77;;
20122;SDS011;10222;50.848;4.336;2022-12-18T06:56:48;6.20;;;3.07;;
20122;SDS011;10222;50.848;4.336;2022-12-18T06:59:14;5.20;;;3.30;;
20122;SDS011;10222;50.848;4.336;2022-12-18T07:01:40;4.73;;;2.27;;
20122;SDS011;10222;50.848;4.336;2022-12-18T07:04:06;6.17;;;2.80;;
20122;SDS011;10222;50.848;4.336;2022-12-18T07:06:32;5.40;;;2.63;;
20122;SDS011;10222;50.848;4.336;2022-12-18T07:08:58;3.07;;;2.47;;
20122;SDS011;10222;50.848;4.336;2022-12-18T07:11:24;5.17;;;2.10;;
20122;SDS011;10222;50.848;4.336;2022-12-18T07:13:51;5.97;;;2.10;;
20122;SDS011;10222;50.848;4.336;2022-12-18T07:16:18;6.00;;;2.77;;
20122;SDS011;10222;50.848;4.336;2022-12-18T07:18:45;6.80;;;2.73;;
20122;SDS011;10222;50.848;4.336;2022-12-18T07:21:12;2.67;;;1.90;;
20122;SDS011;10222;50.848;4.336;2022-12-18T07:23:39;4.30;;;2.27;;
20122;SDS011;10222;50.848;4.336;2022-12-18T07:26:08;1.83;;;1.63;;
20122;SDS011;10222;50.848;4.336;2022-12-18T07:28:34;2.63;;;2.20;;
20122;SDS011;10222;50.848;4.336;2022-12-18T07:31:04;5.83;;;2.97;;
20122;SDS011;10222;50.848;4.336;2022-12-18T07:33:31;4.13;;;2.47;;
20122;SDS011;10222;50.848;4.336;2022-12-18T07:35:58;5.60;;;2.70;;
20122;SDS011;10222;50.848;4.336;2022-12-18T07:38:24;1.90;;;1.73;;
20122;SDS011;10222;50.848;4.336;2022-12-18T07:40:51;2.83;;;2.30;;
20122;SDS011;10222;50.848;4.336;2022-12-18T07:43:17;7.23;;;2.43;;
20122;SDS011;10222;50.848;4.336;2022-12-18T07:45:43;5.23;;;1.80;;
20122;SDS011;10222;50.848;4.336;2022-12-18T07:48:09;2.40;;;1.73;;
20122;SDS011;10222;50.848;4.336;2022-12-18T07:50:36;7.90;;;2.50;;
20122;SDS011;10222;50.848;4.336;2022-12-18T07:53:02;5.03;;;2.57;;
20122;SDS011;10222;50.848;4.336;2022-12-18T07:55:30;4.47;;;2.27;;
20122;SDS011;10222;50.848;4.336;2022-12-18T07:57:56;2.70;;;2.27;;
20122;SDS011;10222;50.848;4.336;2022-12-18T08:00:23;6.83;;;2.67;;
20122;SDS011;10222;50.848;4.336;2022-12-18T08:02:49;3.73;;;2.17;;
20122;SDS011;10222;50.848;4.336;2022-12-18T08:05:15;9.20;;;2.43;;
20122;SDS011;10222;50.848;4.336;2022-12-18T08:07:41;4.20;;;2.67;;
20122;SDS011;10222;50.848;4.336;2022-12-18T08:10:08;3.63;;;2.13;;
20122;SDS011;10222;50.848;4.336;2022-12-18T08:12:34;3.67;;;2.30;;
20122;SDS011;10222;50.848;4.336;2022-12-18T08:15:00;5.17;;;2.27;;
20122;SDS011;10222;50.848;4.336;2022-12-18T08:17:26;4.23;;;2.50;;
20122;SDS011;10222;50.848;4.336;2022-12-18T08:19:52;4.53;;;2.80;;
20122;SDS011;10222;50.848;4.336;2022-12-18T08:22:18;6.13;;;2.57;;
20122;SDS011;10222;50.848;4.336;2022-12-18T08:24:45;7.10;;;3.43;;
20122;SDS011;10222;50.848;4.336;2022-12-18T08:27:11;6.83;;;2.93;;
20122;SDS011;10222;50.848;4.336;2022-12-18T08:29:37;4.90;;;2.37;;
20122;SDS011;10222;50.848;4.336;2022-12-18T08:32:03;3.93;;;2.07;;
20122;SDS011;10222;50.848;4.336;2022-12-18T08:34:30;3.40;;;2.73;;
20122;SDS011;10222;50.848;4.336;2022-12-18T08:36:56;8.60;;;3.17;;
20122;SDS011;10222;50.848;4.336;2022-12-18T08:39:22;8.63;;;2.83;;
20122;SDS011;10222;50.848;4.336;2022-12-18T08:41:51;5.03;;;2.60;;
20122;SDS011;10222;50.848;4.336;2022-12-18T08:44:35;3.57;;;2.17;;
20122;SDS011;10222;50.848;4.336;2022-12-18T08:47:05;6.13;;;3.17;;
20122;SDS011;10222;50.848;4.336;2022-12-18T08:49:32;3.50;;;2.57;;
20122;SDS011;10222;50.848;4.336;2022-12-18T08:51:58;5.30;;;3.10;;
20122;SDS011;10222;50.848;4.336;2022-12-18T08:54:25;6.63;;;3.10;;
20122;SDS011;10222;50.848;4.336;2022-12-18T08:56:51;4.23;;;2.80;;
20122;SDS011;10222;50.848;4.336;2022-12-18T08:59:20;5.00;;;2.80;;
20122;SDS011;10222;50.848;4.336;2022-12-18T09:01:48;6.80;;;3.00;;
20122;SDS011;10222;50.848;4.336;2022-12-18T09:04:14;4.77;;;2.10;;
20122;SDS011;10222;50.848;4.336;2022-12-18T09:06:40;7.47;;;3.70;;
20122;SDS011;10222;50.848;4.336;2022-12-18T09:09:06;4.40;;;3.13;;
20122;SDS011;10222;50.848;4.336;2022-12-18T09:11:32;5.37;;;2.33;;
20122;SDS011;10222;50.848;4.336;2022-12-18T09:13:59;5.47;;;3.63;;
20122;SDS011;10222;50.848;4.336;2022-12-18T09:16:26;5.57;;;3.20;;
20122;SDS011;10222;50.848;4.336;2022-12-18T09:18:57;8.37;;;3.80;;
20122;SDS011;10222;50.848;4.336;2022-12-18T09:21:27;5.97;;;3.30;;
20122;SDS011;10222;50.848;4.336;2022-12-18T09:23:54;6.27;;;3.17;;
20122;SDS011;10222;50.848;4.336;2022-12-18T09:26:21;5.30;;;3.13;;
20122;SDS011;10222;50.848;4.336;2022-12-18T09:28:50;7.43;;;3.30;;
20122;SDS011;10222;50.848;4.336;2022-12-18T09:31:17;4.10;;;2.80;;
20122;SDS011;10222;50.848;4.336;2022-12-18T09:33:43;7.43;;;4.00;;
20122;SDS011;10222;50.848;4.336;2022-12-18T09:36:14;5.90;;;2.87;;
20122;SDS011;10222;50.848;4.336;2022-12-18T09:38:41;4.30;;;3.17;;
20122;SDS011;10222;50.848;4.336;2022-12-18T09:43:54;6.47;;;2.87;;
20122;SDS011;10222;50.848;4.336;2022-12-18T09:46:29;6.43;;;3.00;;
20122;SDS011;10222;50.848;4.336;2022-12-18T09:48:57;7.67;;;3.97;;
20122;SDS011;10222;50.848;4.336;2022-12-18T09:51:45;5.87;;;3.50;;
20122;SDS011;10222;50.848;4.336;2022-12-18T09:54:14;6.93;;;3.13;;
20122;SDS011;10222;50.848;4.336;2022-12-18T09:56:42;8.93;;;3.03;;
20122;SDS011;10222;50.848;4.336;2022-12-18T09:59:20;7.03;;;3.57;;
20122;SDS011;10222;50.848;4.336;2022-12-18T10:01:47;5.07;;;3.10;;
20122;SDS011;10222;50.848;4.336;2022-12-18T10:04:13;7.57;;;3.63;;
20122;SDS011;10222;50.848;4.336;2022-12-18T10:06:51;6.93;;;3.43;;
20122;SDS011;10222;50.848;4.336;2022-12-18T10:11:58;6.97;;;3.80;;
20122;SDS011;10222;50.848;4.336;2022-12-18T10:17:35;6.47;;;3.77;;
20122;SDS011;10222;50.848;4.336;2022-12-18T10:20:45;7.13;;;3.60;;
20122;SDS011;10222;50.848;4.336;2022-12-18T10:25:33;8.90;;;4.60;;
20122;SDS011;10222;50.848;4.336;2022-12-18T10:28:11;10.23;;;4.77;;
20122;SDS011;10222;50.848;4.336;2022-12-18T10:30:39;10.63;;;5.37;;
20122;SDS011;10222;50.848;4.336;2022-12-18T10:33:05;11.03;;;5.33;;
20122;SDS011;10222;50.848;4.336;2022-12-18T10:35:33;9.73;;;5.30;;
20122;SDS011;10222;50.848;4.336;2022-12-18T10:40:48;8.53;;;4.70;;
20122;SDS011;10222;50.848;4.336;2022-12-18T10:43:16;7.33;;;3.37;;
20122;SDS011;10222;50.848;4.336;2022-12-18T10:45:57;13.40;;;5.47;;
20122;SDS011;10222;50.848;4.336;2022-12-18T10:48:24;12.33;;;5.87;;
20122;SDS011;10222;50.848;4.336;2022-12-18T10:50:50;12.40;;;7.07;;
20122;SDS011;10222;50.848;4.336;2022-12-18T10:53:24;10.80;;;5.80;;
20122;SDS011;10222;50.848;4.336;2022-12-18T10:55:51;8.73;;;3.43;;
20122;SDS011;10222;50.848;4.336;2022-12-18T11:03:34;8.67;;;3.87;;
20122;SDS011;10222;50.848;4.336;2022-12-18T11:06:02;8.77;;;4.37;;
20122;SDS011;10222;50.848;4.336;2022-12-18T11:08:28;9.90;;;4.90;;
20122;SDS011;10222;50.848;4.336;2022-12-18T11:10:54;9.00;;;4.57;;
20122;SDS011;10222;50.848;4.336;2022-12-18T11:13:22;9.13;;;5.40;;
20122;SDS011;10222;50.848;4.336;2022-12-18T11:15:48;7.03;;;4.17;;
20122;SDS011;10222;50.848;4.336;2022-12-18T11:18:19;8.93;;;5.30;;
20122;SDS011;10222;50.848;4.336;2022-12-18T11:20:50;13.00;;;4.80;;
20122;SDS011;10222;50.848;4.336;2022-12-18T11:23:17;9.50;;;5.20;;
20122;SDS011;10222;50.848;4.336;2022-12-18T11:25:58;11.10;;;5.37;;
20122;SDS011;10222;50.848;4.336;2022-12-18T11:31:23;13.00;;;5.53;;
20122;SDS011;10222;50.848;4.336;2022-12-18T11:33:52;13.07;;;6.07;;
20122;SDS011;10222;50.848;4.336;2022-12-18T11:36:19;9.27;;;5.10;;
20122;SDS011;10222;50.848;4.336;2022-12-18T11:38:46;8.50;;;4.30;;
20122;SDS011;10222;50.848;4.336;2022-12-18T11:41:19;12.03;;;5.13;;
20122;SDS011;10222;50.848;4.336;2022-12-18T11:46:14;7.67;;;3.93;;
20122;SDS011;10222;50.848;4.336;2022-12-18T11:48:43;9.93;;;4.50;;
20122;SDS011;10222;50.848;4.336;2022-12-18T11:51:11;12.23;;;4.67;;
20122;SDS011;10222;50.848;4.336;2022-12-18T11:53:39;12.27;;;3.93;;
20122;SDS011;10222;50.848;4.336;2022-12-18T11:58:57;9.20;;;4.90;;
20122;SDS011;10222;50.848;4.336;2022-12-18T12:01:33;13.53;;;6.77;;
20122;SDS011;10222;50.848;4.336;2022-12-18T12:19:41;10.40;;;5.10;;
20122;SDS011;10222;50.848;4.336;2022-12-18T12:22:13;12.10;;;4.70;;
20122;SDS011;10222;50.848;4.336;2022-12-18T12:27:39;10.43;;;4.63;;
20122;SDS011;10222;50.848;4.336;2022-12-18T12:30:19;9.67;;;5.20;;
20122;SDS011;10222;50.848;4.336;2022-12-18T12:32:52;12.70;;;6.37;;
20122;SDS011;10222;50.848;4.336;2022-12-18T12:35:28;26.60;;;12.67;;
20122;SDS011;10222;50.848;4.336;2022-12-18T12:38:06;22.53;;;9.27;;
20122;SDS011;10222;50.848;4.336;2022-12-18T12:40:56;19.57;;;8.07;;
20122;SDS011;10222;50.848;4.336;2022-12-18T12:46:00;18.40;;;10.13;;
20122;SDS011;10222;50.848;4.336;2022-12-18T12:48:40;16.03;;;7.50;;
20122;SDS011;10222;50.848;4.336;2022-12-18T12:51:12;20.57;;;8.97;;
20122;SDS011;10222;50.848;4.336;2022-12-18T12:53:39;35.10;;;14.87;;
20122;SDS011;10222;50.848;4.336;2022-12-18T12:56:06;18.87;;;9.27;;
20122;SDS011;10222;50.848;4.336;2022-12-18T13:03:54;27.27;;;12.67;;
20122;SDS011;10222;50.848;4.336;2022-12-18T13:09:09;35.53;;;11.63;;
20122;SDS011;10222;50.848;4.336;2022-12-18T13:14:21;39.70;;;19.93;;
20122;SDS011;10222;50.848;4.336;2022-12-18T13:16:48;33.40;;;14.47;;
20122;SDS011;10222;50.848;4.336;2022-12-18T13:19:32;24.13;;;12.20;;
20122;SDS011;10222;50.848;4.336;2022-12-18T13:21:58;34.47;;;15.73;;
20122;SDS011;10222;50.848;4.336;2022-12-18T13:24:28;32.07;;;14.33;;
20122;SDS011;10222;50.848;4.336;2022-12-18T13:26:56;25.10;;;11.20;;
20122;SDS011;10222;50.848;4.336;2022-12-18T13:32:22;13.27;;;6.77;;
20122;SDS011;10222;50.848;4.336;2022-12-18T13:34:48;17.43;;;8.20;;
20122;SDS011;10222;50.848;4.336;2022-12-18T13:39:59;23.70;;;8.37;;
20122;SDS011;10222;50.848;4.336;2022-12-18T13:42:46;17.70;;;7.73;;
20122;SDS011;10222;50.848;4.336;2022-12-18T13:45:38;18.77;;;7.87;;
20122;SDS011;10222;50.848;4.336;2022-12-18T13:48:04;19.67;;;7.17;;
20122;SDS011;10222;50.848;4.336;2022-12-18T13:50:31;20.83;;;8.40;;
20122;SDS011;10222;50.848;4.336;2022-12-18T13:52:57;18.47;;;8.57;;
20122;SDS011;10222;50.848;4.336;2022-12-18T13:55:23;20.23;;;8.00;;
20122;SDS011;10222;50.848;4.336;2022-12-18T13:57:49;20.37;;;8.93;;
20122;SDS011;10222;50.848;4.336;2022-12-18T14:02:44;16.67;;;8.47;;
20122;SDS011;10222;50.848;4.336;2022-12-18T14:08:13;18.60;;;7.87;;
20122;SDS011;10222;50.848;4.336;2022-12-18T14:10:43;13.43;;;7.37;;
20122;SDS011;10222;50.848;4.336;2022-12-18T14:13:10;10.43;;;5.27;;
20122;SDS011;10222;50.848;4.336;2022-12-18T14:15:39;18.50;;;7.40;;
20122;SDS011;10222;50.848;4.336;2022-12-18T14:20:41;18.43;;;8.37;;
20122;SDS011;10222;50.848;4.336;2022-12-18T14:23:28;15.47;;;7.53;;
20122;SDS011;10222;50.848;4.336;2022-12-18T14:25:54;17.10;;;7.40;;
20122;SDS011;10222;50.848;4.336;2022-12-18T14:28:20;15.63;;;7.10;;
20122;SDS011;10222;50.848;4.336;2022-12-18T14:30:47;17.10;;;8.03;;
20122;SDS011;10222;50.848;4.336;2022-12-18T14:35:43;20.73;;;8.73;;
20122;SDS011;10222;50.848;4.336;2022-12-18T14:38:51;17.83;;;8.87;;
20122;SDS011;10222;50.848;4.336;2022-12-18T14:41:10;27.27;;;12.27;;
20122;SDS011;10222;50.848;4.336;2022-12-18T14:43:37;62.97;;;25.77;;
20122;SDS011;10222;50.848;4.336;2022-12-18T14:46:04;37.40;;;16.40;;
20122;SDS011;10222;50.848;4.336;2022-12-18T14:51:04;32.03;;;14.87;;
20122;SDS011;10222;50.848;4.336;2022-12-18T14:53:38;23.47;;;11.33;;
20122;SDS011;10222;50.848;4.336;2022-12-18T14:58:50;22.37;;;9.93;;
20122;SDS011;10222;50.848;4.336;2022-12-18T15:01:27;18.37;;;9.27;;
20122;SDS011;10222;50.848;4.336;2022-12-18T15:03:54;18.70;;;7.70;;
20122;SDS011;10222;50.848;4.336;2022-12-18T15:06:38;22.50;;;8.57;;
20122;SDS011;10222;50.848;4.336;2022-12-18T15:09:21;18.37;;;8.63;;
20122;SDS011;10222;50.848;4.336;2022-12-18T15:11:47;19.87;;;8.67;;
20122;SDS011;10222;50.848;4.336;2022-12-18T15:14:23;21.87;;;8.90;;
20122;SDS011;10222;50.848;4.336;2022-12-18T15:16:50;18.27;;;7.73;;
20122;SDS011;10222;50.848;4.336;2022-12-18T15:19:17;12.40;;;6.50;;
20122;SDS011;10222;50.848;4.336;2022-12-18T15:21:43;15.00;;;7.07;;
20122;SDS011;10222;50.848;4.336;2022-12-18T15:24:16;18.03;;;6.77;;
20122;SDS011;10222;50.848;4.336;2022-12-18T15:26:43;16.80;;;7.10;;
20122;SDS011;10222;50.848;4.336;2022-12-18T15:29:18;17.63;;;8.07;;
20122;SDS011;10222;50.848;4.336;2022-12-18T15:31:45;15.37;;;7.00;;
20122;SDS011;10222;50.848;4.336;2022-12-18T15:34:23;13.13;;;6.87;;
20122;SDS011;10222;50.848;4.336;2022-12-18T15:36:50;16.47;;;6.90;;
20122;SDS011;10222;50.848;4.336;2022-12-18T15:39:16;23.90;;;8.20;;
20122;SDS011;10222;50.848;4.336;2022-12-18T15:41:42;16.27;;;7.80;;
20122;SDS011;10222;50.848;4.336;2022-12-18T15:44:28;17.53;;;7.77;;
20122;SDS011;10222;50.848;4.336;2022-12-18T15:46:54;20.13;;;8.27;;
20122;SDS011;10222;50.848;4.336;2022-12-18T15:49:20;27.47;;;10.00;;
20122;SDS011;10222;50.848;4.336;2022-12-18T15:51:53;14.27;;;6.37;;
20122;SDS011;10222;50.848;4.336;2022-12-18T15:54:20;14.97;;;6.37;;
20122;SDS011;10222;50.848;4.336;2022-12-18T15:57:09;14.90;;;6.90;;
20122;SDS011;10222;50.848;4.336;2022-12-18T15:59:48;23.07;;;7.03;;
20122;SDS011;10222;50.848;4.336;2022-12-18T16:02:15;19.83;;;7.60;;
20122;SDS011;10222;50.848;4.336;2022-12-18T16:04:42;18.60;;;7.93;;
20122;SDS011;10222;50.848;4.336;2022-12-18T16:07:08;16.10;;;7.27;;
20122;SDS011;10222;50.848;4.336;2022-12-18T16:09:36;19.47;;;8.40;;
20122;SDS011;10222;50.848;4.336;2022-12-18T16:12:04;16.80;;;7.37;;
20122;SDS011;10222;50.848;4.336;2022-12-18T16:14:31;17.10;;;7.23;;
20122;SDS011;10222;50.848;4.336;2022-12-18T16:16:58;20.30;;;7.83;;
20122;SDS011;10222;50.848;4.336;2022-12-18T16:19:24;15.23;;;6.73;;
20122;SDS011;10222;50.848;4.336;2022-12-18T16:21:51;15.80;;;7.47;;
20122;SDS011;10222;50.848;4.336;2022-12-18T16:24:19;18.17;;;7.43;;
20122;SDS011;10222;50.848;4.336;2022-12-18T16:26:48;19.60;;;7.23;;
20122;SDS011;10222;50.848;4.336;2022-12-18T16:29:16;21.23;;;8.27;;
20122;SDS011;10222;50.848;4.336;2022-12-18T16:31:43;22.03;;;8.47;;